Dalmeny, Canada
Current Conditions -  °F | °C
As of 4:00 PM on Saturday 25 Oct 2014 (Local Time) from CYXE Reporting Station
Broken Clouds Broken Clouds  
Wind Chill: 44°   Ceiling: 25000
Heat Index: 46°   Visibility: 15mi
Dew Point: 27°   Wind: 5mph
Humidity: 46%   Direction: 120°ESE
Pressure: 29.96"   Gusts: NA
Location:  52.33°N, 106.78°W
Report Text: CYXE 252200Z 12004KT 15SM SCT130 BKN250 08/M03 A2996 RMK AC4CI3 SLP170
Loading
Personal Weather Stations






























Interactive Weather Map
Tropical Storm Tracking
New forecast layout! Learn more

10-Day Weather Forecast

Advertisements
Track Severe Weather on mobile